sensor_id;sensor_type;location;lat;lon;timestamp;pressure;altitude;pressure_sealevel;temperature;humidity
47726;BME280;33483;48.294;16.388;2022-09-16T00:00:53;98878.25;;;14.18;100.00
47726;BME280;33483;48.294;16.388;2022-09-16T00:03:37;98879.97;;;14.13;100.00
47726;BME280;33483;48.294;16.388;2022-09-16T00:06:04;98885.94;;;14.10;100.00
47726;BME280;33483;48.294;16.388;2022-09-16T00:08:31;98885.03;;;14.07;100.00
47726;BME280;33483;48.294;16.388;2022-09-16T00:11:00;98892.47;;;14.05;100.00
47726;BME280;33483;48.294;16.388;2022-09-16T00:13:28;98886.72;;;14.03;100.00
47726;BME280;33483;48.294;16.388;2022-09-16T00:15:55;98890.47;;;13.98;100.00
47726;BME280;33483;48.294;16.388;2022-09-16T00:18:22;98888.09;;;13.94;100.00
47726;BME280;33483;48.294;16.388;2022-09-16T00:20:53;98884.19;;;13.90;100.00
47726;BME280;33483;48.294;16.388;2022-09-16T00:23:23;98888.31;;;13.89;100.00
47726;BME280;33483;48.294;16.388;2022-09-16T00:25:51;98882.19;;;13.83;100.00
47726;BME280;33483;48.294;16.388;2022-09-16T00:28:22;98888.72;;;13.78;100.00
47726;BME280;33483;48.294;16.388;2022-09-16T00:30:49;98881.34;;;13.73;100.00
47726;BME280;33483;48.294;16.388;2022-09-16T00:33:17;98875.41;;;13.69;100.00
47726;BME280;33483;48.294;16.388;2022-09-16T00:35:45;98871.34;;;13.70;100.00
47726;BME280;33483;48.294;16.388;2022-09-16T00:38:13;98872.63;;;13.69;100.00
47726;BME280;33483;48.294;16.388;2022-09-16T00:40:45;98873.94;;;13.68;100.00
47726;BME280;33483;48.294;16.388;2022-09-16T00:43:14;98867.22;;;13.71;100.00
47726;BME280;33483;48.294;16.388;2022-09-16T00:45:55;98875.19;;;13.74;100.00
47726;BME280;33483;48.294;16.388;2022-09-16T00:48:25;98872.19;;;13.80;100.00
47726;BME280;33483;48.294;16.388;2022-09-16T00:51:07;98871.41;;;13.87;100.00
47726;BME280;33483;48.294;16.388;2022-09-16T00:53:42;98871.94;;;13.93;100.00
47726;BME280;33483;48.294;16.388;2022-09-16T00:56:16;98869.50;;;13.97;100.00
47726;BME280;33483;48.294;16.388;2022-09-16T00:58:50;98875.06;;;13.97;100.00
47726;BME280;33483;48.294;16.388;2022-09-16T01:01:20;98872.63;;;14.01;100.00
47726;BME280;33483;48.294;16.388;2022-09-16T01:03:50;98877.81;;;14.04;100.00
47726;BME280;33483;48.294;16.388;2022-09-16T01:06:23;98882.63;;;14.04;100.00
47726;BME280;33483;48.294;16.388;2022-09-16T01:08:51;98883.19;;;14.02;100.00
47726;BME280;33483;48.294;16.388;2022-09-16T01:11:19;98880.75;;;14.06;100.00
47726;BME280;33483;48.294;16.388;2022-09-16T01:13:47;98886.91;;;14.05;100.00
47726;BME280;33483;48.294;16.388;2022-09-16T01:16:23;98883.78;;;14.01;100.00
47726;BME280;33483;48.294;16.388;2022-09-16T01:25:17;98895.47;;;13.99;100.00
47726;BME280;33483;48.294;16.388;2022-09-16T01:38:53;98887.69;;;13.98;100.00
47726;BME280;33483;48.294;16.388;2022-09-16T01:41:52;98879.34;;;13.98;100.00
47726;BME280;33483;48.294;16.388;2022-09-16T01:47:37;98885.47;;;13.96;100.00
47726;BME280;33483;48.294;16.388;2022-09-16T01:50:24;98883.25;;;13.95;100.00
47726;BME280;33483;48.294;16.388;2022-09-16T01:55:40;98882.72;;;13.89;100.00
47726;BME280;33483;48.294;16.388;2022-09-16T01:58:20;98889.44;;;13.86;100.00
47726;BME280;33483;48.294;16.388;2022-09-16T02:00:55;98893.88;;;13.89;100.00
47726;BME280;33483;48.294;16.388;2022-09-16T02:03:28;98890.91;;;13.87;100.00
47726;BME280;33483;48.294;16.388;2022-09-16T02:06:00;98885.16;;;13.85;100.00
47726;BME280;33483;48.294;16.388;2022-09-16T02:08:38;98885.72;;;13.83;100.00
47726;BME280;33483;48.294;16.388;2022-09-16T02:11:08;98881.88;;;13.79;100.00
47726;BME280;33483;48.294;16.388;2022-09-16T02:13:42;98872.19;;;13.80;100.00
47726;BME280;33483;48.294;16.388;2022-09-16T02:19:29;98857.00;;;13.73;100.00
47726;BME280;33483;48.294;16.388;2022-09-16T02:22:00;98848.84;;;13.75;100.00
47726;BME280;33483;48.294;16.388;2022-09-16T02:24:30;98858.47;;;13.74;100.00
47726;BME280;33483;48.294;16.388;2022-09-16T02:26:59;98854.97;;;13.74;100.00
47726;BME280;33483;48.294;16.388;2022-09-16T02:29:38;98856.09;;;13.71;100.00
47726;BME280;33483;48.294;16.388;2022-09-16T02:32:08;98855.91;;;13.69;100.00
47726;BME280;33483;48.294;16.388;2022-09-16T02:34:44;98854.81;;;13.72;100.00
47726;BME280;33483;48.294;16.388;2022-09-16T02:37:17;98851.22;;;13.79;100.00
47726;BME280;33483;48.294;16.388;2022-09-16T02:39:53;98847.88;;;13.80;100.00
47726;BME280;33483;48.294;16.388;2022-09-16T02:42:26;98843.94;;;13.83;100.00
47726;BME280;33483;48.294;16.388;2022-09-16T02:44:53;98848.94;;;13.85;100.00
47726;BME280;33483;48.294;16.388;2022-09-16T02:48:12;98852.13;;;13.81;100.00
47726;BME280;33483;48.294;16.388;2022-09-16T02:50:29;98861.81;;;13.80;100.00
47726;BME280;33483;48.294;16.388;2022-09-16T02:53:04;98852.69;;;13.80;100.00
47726;BME280;33483;48.294;16.388;2022-09-16T02:55:52;98854.97;;;13.74;100.00
47726;BME280;33483;48.294;16.388;2022-09-16T02:58:23;98861.84;;;13.73;100.00
47726;BME280;33483;48.294;16.388;2022-09-16T03:00:53;98860.00;;;13.68;100.00
47726;BME280;33483;48.294;16.388;2022-09-16T03:03:23;98865.00;;;13.69;100.00
47726;BME280;33483;48.294;16.388;2022-09-16T03:06:05;98864.84;;;13.67;100.00
47726;BME280;33483;48.294;16.388;2022-09-16T03:08:37;98861.16;;;13.65;100.00
47726;BME280;33483;48.294;16.388;2022-09-16T03:28:17;98871.84;;;13.36;100.00
47726;BME280;33483;48.294;16.388;2022-09-16T03:31:03;98887.81;;;13.35;100.00
47726;BME280;33483;48.294;16.388;2022-09-16T03:36:27;98886.16;;;13.32;100.00
47726;BME280;33483;48.294;16.388;2022-09-16T03:39:00;98877.47;;;13.28;100.00
47726;BME280;33483;48.294;16.388;2022-09-16T03:41:31;98886.34;;;13.27;100.00
47726;BME280;33483;48.294;16.388;2022-09-16T03:44:02;98885.81;;;13.28;100.00
47726;BME280;33483;48.294;16.388;2022-09-16T03:46:30;98874.06;;;13.37;100.00
47726;BME280;33483;48.294;16.388;2022-09-16T03:48:58;98867.41;;;13.33;100.00
47726;BME280;33483;48.294;16.388;2022-09-16T03:51:25;98868.56;;;13.30;100.00
47726;BME280;33483;48.294;16.388;2022-09-16T03:53:53;98874.50;;;13.26;100.00
47726;BME280;33483;48.294;16.388;2022-09-16T03:56:23;98873.00;;;13.25;100.00
47726;BME280;33483;48.294;16.388;2022-09-16T03:58:51;98877.84;;;13.25;100.00
47726;BME280;33483;48.294;16.388;2022-09-16T04:01:18;98879.88;;;13.24;100.00
47726;BME280;33483;48.294;16.388;2022-09-16T04:03:46;98889.19;;;13.19;100.00
47726;BME280;33483;48.294;16.388;2022-09-16T04:06:14;98891.59;;;13.15;100.00
47726;BME280;33483;48.294;16.388;2022-09-16T04:08:47;98896.78;;;13.11;100.00
47726;BME280;33483;48.294;16.388;2022-09-16T04:11:16;98900.69;;;13.08;100.00
47726;BME280;33483;48.294;16.388;2022-09-16T04:13:43;98902.56;;;13.06;100.00
47726;BME280;33483;48.294;16.388;2022-09-16T04:16:18;98893.09;;;13.01;100.00
47726;BME280;33483;48.294;16.388;2022-09-16T04:18:47;98893.47;;;12.98;100.00
47726;BME280;33483;48.294;16.388;2022-09-16T04:21:14;98896.81;;;12.96;100.00
47726;BME280;33483;48.294;16.388;2022-09-16T04:23:42;98904.97;;;12.94;100.00
47726;BME280;33483;48.294;16.388;2022-09-16T04:26:11;98902.00;;;12.92;100.00
47726;BME280;33483;48.294;16.388;2022-09-16T04:28:39;98900.34;;;12.89;100.00
47726;BME280;33483;48.294;16.388;2022-09-16T04:31:09;98900.16;;;12.87;100.00
47726;BME280;33483;48.294;16.388;2022-09-16T04:33:37;98905.91;;;12.82;100.00
47726;BME280;33483;48.294;16.388;2022-09-16T04:36:10;98898.13;;;12.80;100.00
47726;BME280;33483;48.294;16.388;2022-09-16T04:38:42;98894.97;;;12.76;100.00
47726;BME280;33483;48.294;16.388;2022-09-16T04:41:16;98887.56;;;12.71;100.00
47726;BME280;33483;48.294;16.388;2022-09-16T04:43:43;98880.34;;;12.68;100.00
47726;BME280;33483;48.294;16.388;2022-09-16T04:46:48;98880.91;;;12.59;100.00
47726;BME280;33483;48.294;16.388;2022-09-16T04:49:15;98889.06;;;12.57;100.00
47726;BME280;33483;48.294;16.388;2022-09-16T04:51:45;98875.72;;;12.56;100.00
47726;BME280;33483;48.294;16.388;2022-09-16T04:54:14;98880.56;;;12.55;100.00
47726;BME280;33483;48.294;16.388;2022-09-16T04:56:42;98890.19;;;12.54;100.00
47726;BME280;33483;48.294;16.388;2022-09-16T04:59:11;98879.06;;;12.54;100.00
47726;BME280;33483;48.294;16.388;2022-09-16T05:01:39;98878.50;;;12.56;100.00
47726;BME280;33483;48.294;16.388;2022-09-16T05:04:08;98868.31;;;12.58;100.00
47726;BME280;33483;48.294;16.388;2022-09-16T05:06:39;98861.63;;;12.61;100.00
47726;BME280;33483;48.294;16.388;2022-09-16T05:09:09;98859.41;;;12.67;100.00
47726;BME280;33483;48.294;16.388;2022-09-16T05:11:40;98856.03;;;12.76;100.00
47726;BME280;33483;48.294;16.388;2022-09-16T05:14:13;98854.56;;;12.83;100.00
47726;BME280;33483;48.294;16.388;2022-09-16T05:16:40;98856.97;;;12.86;100.00
47726;BME280;33483;48.294;16.388;2022-09-16T05:19:09;98858.81;;;12.91;100.00
47726;BME280;33483;48.294;16.388;2022-09-16T05:21:39;98857.50;;;12.92;100.00
47726;BME280;33483;48.294;16.388;2022-09-16T05:24:09;98857.88;;;12.96;100.00
47726;BME280;33483;48.294;16.388;2022-09-16T05:26:40;98859.34;;;12.97;100.00
47726;BME280;33483;48.294;16.388;2022-09-16T05:29:15;98850.06;;;13.02;100.00
47726;BME280;33483;48.294;16.388;2022-09-16T05:31:44;98856.94;;;13.01;100.00
47726;BME280;33483;48.294;16.388;2022-09-16T05:34:16;98855.25;;;13.06;100.00
47726;BME280;33483;48.294;16.388;2022-09-16T05:36:45;98859.53;;;13.07;100.00
47726;BME280;33483;48.294;16.388;2022-09-16T05:39:14;98859.34;;;13.12;100.00
47726;BME280;33483;48.294;16.388;2022-09-16T05:41:54;98864.31;;;13.21;100.00
47726;BME280;33483;48.294;16.388;2022-09-16T05:44:25;98854.28;;;13.26;100.00
47726;BME280;33483;48.294;16.388;2022-09-16T05:46:52;98846.41;;;13.39;100.00
47726;BME280;33483;48.294;16.388;2022-09-16T05:49:22;98839.22;;;13.69;100.00
47726;BME280;33483;48.294;16.388;2022-09-16T05:51:50;98843.91;;;13.91;100.00
47726;BME280;33483;48.294;16.388;2022-09-16T05:54:18;98841.72;;;14.14;100.00
47726;BME280;33483;48.294;16.388;2022-09-16T05:56:46;98854.13;;;14.45;100.00
47726;BME280;33483;48.294;16.388;2022-09-16T05:59:14;98858.44;;;14.97;100.00
47726;BME280;33483;48.294;16.388;2022-09-16T06:01:42;98857.53;;;15.12;100.00
47726;BME280;33483;48.294;16.388;2022-09-16T06:04:13;98864.66;;;15.05;100.00
47726;BME280;33483;48.294;16.388;2022-09-16T06:06:45;98857.53;;;15.12;100.00
47726;BME280;33483;48.294;16.388;2022-09-16T06:09:19;98860.47;;;15.14;100.00
47726;BME280;33483;48.294;16.388;2022-09-16T06:11:49;98860.78;;;15.35;100.00
47726;BME280;33483;48.294;16.388;2022-09-16T06:14:27;98858.56;;;15.50;100.00
47726;BME280;33483;48.294;16.388;2022-09-16T06:16:54;98850.38;;;15.79;100.00
47726;BME280;33483;48.294;16.388;2022-09-16T06:19:21;98849.56;;;15.96;100.00
47726;BME280;33483;48.294;16.388;2022-09-16T06:21:49;98846.56;;;16.20;100.00
47726;BME280;33483;48.294;16.388;2022-09-16T06:24:17;98849.25;;;16.73;100.00
47726;BME280;33483;48.294;16.388;2022-09-16T06:26:47;98858.97;;;16.63;100.00
47726;BME280;33483;48.294;16.388;2022-09-16T06:29:15;98858.47;;;16.47;100.00
47726;BME280;33483;48.294;16.388;2022-09-16T06:31:43;98873.53;;;16.61;100.00
47726;BME280;33483;48.294;16.388;2022-09-16T06:34:14;98881.19;;;16.61;100.00
47726;BME280;33483;48.294;16.388;2022-09-16T06:36:45;98885.53;;;16.45;100.00
47726;BME280;33483;48.294;16.388;2022-09-16T06:39:16;98880.28;;;16.22;100.00
47726;BME280;33483;48.294;16.388;2022-09-16T06:41:46;98882.50;;;16.24;100.00
47726;BME280;33483;48.294;16.388;2022-09-16T06:44:13;98882.38;;;18.41;100.00
47726;BME280;33483;48.294;16.388;2022-09-16T06:46:40;98894.34;;;19.68;100.00
47726;BME280;33483;48.294;16.388;2022-09-16T06:49:07;98894.47;;;20.95;100.00
47726;BME280;33483;48.294;16.388;2022-09-16T06:51:37;98891.38;;;21.51;100.00
47726;BME280;33483;48.294;16.388;2022-09-16T06:54:06;98903.50;;;22.04;100.00
47726;BME280;33483;48.294;16.388;2022-09-16T06:56:34;98907.34;;;22.49;100.00
47726;BME280;33483;48.294;16.388;2022-09-16T06:59:04;98906.34;;;20.82;100.00
47726;BME280;33483;48.294;16.388;2022-09-16T07:01:31;98910.28;;;20.20;100.00
47726;BME280;33483;48.294;16.388;2022-09-16T07:04:04;98899.47;;;19.60;100.00
47726;BME280;33483;48.294;16.388;2022-09-16T07:06:33;98910.19;;;20.64;100.00
47726;BME280;33483;48.294;16.388;2022-09-16T07:09:20;98912.00;;;22.56;100.00
47726;BME280;33483;48.294;16.388;2022-09-16T07:11:48;98913.19;;;24.22;100.00
47726;BME280;33483;48.294;16.388;2022-09-16T07:14:17;98923.75;;;25.48;100.00
47726;BME280;33483;48.294;16.388;2022-09-16T07:16:44;98927.94;;;25.29;80.82
47726;BME280;33483;48.294;16.388;2022-09-16T07:19:12;98931.38;;;25.96;76.40
47726;BME280;33483;48.294;16.388;2022-09-16T07:21:39;98934.28;;;26.33;73.09
47726;BME280;33483;48.294;16.388;2022-09-16T07:24:10;98939.63;;;26.62;72.89
47726;BME280;33483;48.294;16.388;2022-09-16T07:26:39;98944.56;;;25.37;73.26
47726;BME280;33483;48.294;16.388;2022-09-16T07:29:14;98931.34;;;23.29;79.83
47726;BME280;33483;48.294;16.388;2022-09-16T07:31:42;98932.50;;;21.68;88.23
47726;BME280;33483;48.294;16.388;2022-09-16T07:34:10;98927.69;;;20.74;96.45
47726;BME280;33483;48.294;16.388;2022-09-16T07:36:45;98915.41;;;19.79;100.00
47726;BME280;33483;48.294;16.388;2022-09-16T07:39:15;98905.38;;;19.22;100.00
47726;BME280;33483;48.294;16.388;2022-09-16T07:41:44;98902.28;;;18.76;100.00
47726;BME280;33483;48.294;16.388;2022-09-16T07:44:16;98907.38;;;18.89;100.00
47726;BME280;33483;48.294;16.388;2022-09-16T07:46:47;98911.81;;;19.34;100.00
47726;BME280;33483;48.294;16.388;2022-09-16T07:49:16;98908.06;;;19.74;100.00
47726;BME280;33483;48.294;16.388;2022-09-16T07:51:44;98909.19;;;20.25;100.00
47726;BME280;33483;48.294;16.388;2022-09-16T07:54:14;98909.44;;;19.52;100.00
47726;BME280;33483;48.294;16.388;2022-09-16T07:56:45;98908.47;;;19.05;100.00
47726;BME280;33483;48.294;16.388;2022-09-16T07:59:15;98905.16;;;18.66;100.00
47726;BME280;33483;48.294;16.388;2022-09-16T08:01:48;98905.16;;;18.17;100.00
47726;BME280;33483;48.294;16.388;2022-09-16T08:04:19;98904.31;;;18.14;100.00
47726;BME280;33483;48.294;16.388;2022-09-16T08:06:47;98909.25;;;17.75;100.00
47726;BME280;33483;48.294;16.388;2022-09-16T08:09:14;98910.84;;;17.97;100.00
47726;BME280;33483;48.294;16.388;2022-09-16T08:12:03;98934.22;;;18.40;100.00
47726;BME280;33483;48.294;16.388;2022-09-16T08:14:31;98938.22;;;19.62;100.00
47726;BME280;33483;48.294;16.388;2022-09-16T08:17:03;98940.84;;;19.81;100.00
47726;BME280;33483;48.294;16.388;2022-09-16T08:19:33;98943.44;;;21.25;98.14
47726;BME280;33483;48.294;16.388;2022-09-16T08:22:00;98947.28;;;22.96;81.34
47726;BME280;33483;48.294;16.388;2022-09-16T08:24:27;98951.63;;;23.53;72.44
47726;BME280;33483;48.294;16.388;2022-09-16T08:26:54;98960.47;;;24.48;76.60
47726;BME280;33483;48.294;16.388;2022-09-16T08:29:26;98956.22;;;24.79;65.78
47726;BME280;33483;48.294;16.388;2022-09-16T08:31:56;98956.72;;;24.60;67.52
47726;BME280;33483;48.294;16.388;2022-09-16T08:34:28;98950.56;;;23.89;66.28
47726;BME280;33483;48.294;16.388;2022-09-16T08:36:55;98945.72;;;23.76;67.49
47726;BME280;33483;48.294;16.388;2022-09-16T08:39:22;98949.56;;;23.40;71.72
47726;BME280;33483;48.294;16.388;2022-09-16T08:42:07;98940.16;;;22.81;66.17
47726;BME280;33483;48.294;16.388;2022-09-16T08:50:36;98924.16;;;21.70;82.18
47726;BME280;33483;48.294;16.388;2022-09-16T08:53:11;98920.38;;;22.15;72.88
47726;BME280;33483;48.294;16.388;2022-09-16T08:55:46;98924.44;;;22.12;73.93
47726;BME280;33483;48.294;16.388;2022-09-16T08:58:21;98932.06;;;21.48;74.61
47726;BME280;33483;48.294;16.388;2022-09-16T09:00:57;98935.97;;;21.18;74.80
47726;BME280;33483;48.294;16.388;2022-09-16T09:03:40;98941.00;;;20.73;81.83
47726;BME280;33483;48.294;16.388;2022-09-16T09:11:34;98936.31;;;19.76;83.40
47726;BME280;33483;48.294;16.388;2022-09-16T09:17:11;98941.66;;;19.39;85.21
47726;BME280;33483;48.294;16.388;2022-09-16T09:20:13;98929.91;;;19.22;86.02
47726;BME280;33483;48.294;16.388;2022-09-16T09:26:21;98921.91;;;19.28;100.00
47726;BME280;33483;48.294;16.388;2022-09-16T09:34:31;98922.84;;;18.99;93.81
47726;BME280;33483;48.294;16.388;2022-09-16T09:42:55;98917.38;;;18.71;93.89
47726;BME280;33483;48.294;16.388;2022-09-16T09:45:29;98915.78;;;18.68;95.76
47726;BME280;33483;48.294;16.388;2022-09-16T09:50:58;98909.31;;;19.07;97.64
47726;BME280;33483;48.294;16.388;2022-09-16T09:53:39;98909.31;;;19.07;98.79
47726;BME280;33483;48.294;16.388;2022-09-16T09:56:36;98919.28;;;19.20;98.45
47726;BME280;33483;48.294;16.388;2022-09-16T09:59:27;98923.16;;;18.94;98.99
47726;BME280;33483;48.294;16.388;2022-09-16T10:01:56;98922.31;;;18.91;98.37
47726;BME280;33483;48.294;16.388;2022-09-16T10:04:24;98914.72;;;18.73;99.21
47726;BME280;33483;48.294;16.388;2022-09-16T10:06:53;98915.63;;;18.66;97.09
47726;BME280;33483;48.294;16.388;2022-09-16T10:09:21;98901.44;;;18.64;100.00
47726;BME280;33483;48.294;16.388;2022-09-16T10:11:51;98914.94;;;18.56;100.00
47726;BME280;33483;48.294;16.388;2022-09-16T10:14:35;98904.97;;;18.43;100.00
47726;BME280;33483;48.294;16.388;2022-09-16T10:17:13;98906.03;;;18.29;100.00
47726;BME280;33483;48.294;16.388;2022-09-16T10:22:24;98900.69;;;18.42;100.00
47726;BME280;33483;48.294;16.388;2022-09-16T10:25:01;98899.56;;;18.57;100.00
47726;BME280;33483;48.294;16.388;2022-09-16T10:27:30;98892.03;;;18.59;100.00
47726;BME280;33483;48.294;16.388;2022-09-16T10:30:09;98893.25;;;18.56;100.00
47726;BME280;33483;48.294;16.388;2022-09-16T10:33:10;98889.00;;;18.46;100.00
47726;BME280;33483;48.294;16.388;2022-09-16T10:35:51;98895.31;;;18.56;100.00
47726;BME280;33483;48.294;16.388;2022-09-16T10:38:23;98907.03;;;18.43;100.00
47726;BME280;33483;48.294;16.388;2022-09-16T10:41:16;98900.50;;;18.50;100.00
47726;BME280;33483;48.294;16.388;2022-09-16T10:46:18;98894.56;;;18.55;100.00
47726;BME280;33483;48.294;16.388;2022-09-16T10:48:47;98888.09;;;18.53;100.00
47726;BME280;33483;48.294;16.388;2022-09-16T10:51:26;98887.84;;;18.70;100.00
47726;BME280;33483;48.294;16.388;2022-09-16T10:54:00;98890.72;;;18.81;100.00
47726;BME280;33483;48.294;16.388;2022-09-16T10:56:34;98889.78;;;18.88;100.00
47726;BME280;33483;48.294;16.388;2022-09-16T10:59:12;98882.97;;;18.70;100.00
47726;BME280;33483;48.294;16.388;2022-09-16T11:02:07;98882.03;;;18.77;100.00
47726;BME280;33483;48.294;16.388;2022-09-16T11:38:07;98847.66;;;19.09;100.00
47726;BME280;33483;48.294;16.388;2022-09-16T11:46:21;98841.84;;;19.17;100.00
47726;BME280;33483;48.294;16.388;2022-09-16T11:51:56;98837.53;;;19.16;100.00
47726;BME280;33483;48.294;16.388;2022-09-16T11:57:22;98828.16;;;19.23;100.00
47726;BME280;33483;48.294;16.388;2022-09-16T11:59:55;98832.06;;;19.18;100.00
47726;BME280;33483;48.294;16.388;2022-09-16T12:08:03;98829.53;;;19.55;98.89
47726;BME280;33483;48.294;16.388;2022-09-16T12:10:50;98834.84;;;19.39;97.12
47726;BME280;33483;48.294;16.388;2022-09-16T12:13:27;98823.25;;;19.33;95.08
47726;BME280;33483;48.294;16.388;2022-09-16T12:16:00;98814.94;;;19.35;97.82
47726;BME280;33483;48.294;16.388;2022-09-16T12:18:56;98812.94;;;19.59;99.07
47726;BME280;33483;48.294;16.388;2022-09-16T12:21:45;98813.81;;;19.61;99.71
47726;BME280;33483;48.294;16.388;2022-09-16T12:24:46;98813.41;;;19.67;95.78
47726;BME280;33483;48.294;16.388;2022-09-16T12:30:39;98817.88;;;20.04;92.97
47726;BME280;33483;48.294;16.388;2022-09-16T12:33:23;98814.72;;;20.22;92.45
47726;BME280;33483;48.294;16.388;2022-09-16T12:36:03;98797.84;;;20.22;93.62
47726;BME280;33483;48.294;16.388;2022-09-16T12:38:32;98791.50;;;20.33;90.81
47726;BME280;33483;48.294;16.388;2022-09-16T12:41:37;98793.94;;;20.27;90.84
47726;BME280;33483;48.294;16.388;2022-09-16T12:43:59;98795.50;;;20.30;92.75
47726;BME280;33483;48.294;16.388;2022-09-16T12:52:26;98804.78;;;19.97;90.10
47726;BME280;33483;48.294;16.388;2022-09-16T13:03:39;98761.56;;;19.35;93.80
47726;BME280;33483;48.294;16.388;2022-09-16T13:08:48;98760.72;;;19.12;96.46
47726;BME280;33483;48.294;16.388;2022-09-16T13:11:25;98769.75;;;19.10;95.87
47726;BME280;33483;48.294;16.388;2022-09-16T13:14:20;98759.25;;;19.11;97.09
47726;BME280;33483;48.294;16.388;2022-09-16T13:16:56;98770.69;;;19.03;96.10
47726;BME280;33483;48.294;16.388;2022-09-16T13:19:45;98768.34;;;18.88;98.67
47726;BME280;33483;48.294;16.388;2022-09-16T13:22:29;98764.00;;;18.75;95.85
47726;BME280;33483;48.294;16.388;2022-09-16T13:25:20;98754.91;;;18.65;99.68
47726;BME280;33483;48.294;16.388;2022-09-16T13:30:34;98755.78;;;18.47;98.48
47726;BME280;33483;48.294;16.388;2022-09-16T13:33:21;98765.78;;;18.29;98.73
47726;BME280;33483;48.294;16.388;2022-09-16T13:38:38;98760.59;;;18.04;100.00
47726;BME280;33483;48.294;16.388;2022-09-16T13:41:11;98758.59;;;17.85;100.00
47726;BME280;33483;48.294;16.388;2022-09-16T13:46:10;98744.97;;;17.70;100.00
47726;BME280;33483;48.294;16.388;2022-09-16T13:49:26;98734.22;;;17.57;100.00
47726;BME280;33483;48.294;16.388;2022-09-16T13:51:39;98741.47;;;17.60;100.00
47726;BME280;33483;48.294;16.388;2022-09-16T13:54:25;98729.81;;;17.54;100.00
47726;BME280;33483;48.294;16.388;2022-09-16T13:57:15;98719.66;;;17.59;100.00
47726;BME280;33483;48.294;16.388;2022-09-16T14:00:10;98734.66;;;17.63;100.00
47726;BME280;33483;48.294;16.388;2022-09-16T14:05:47;98723.75;;;17.67;100.00
47726;BME280;33483;48.294;16.388;2022-09-16T14:11:30;98731.38;;;17.76;100.00
47726;BME280;33483;48.294;16.388;2022-09-16T14:14:12;98742.69;;;17.78;100.00
47726;BME280;33483;48.294;16.388;2022-09-16T14:17:13;98732.31;;;17.90;100.00
47726;BME280;33483;48.294;16.388;2022-09-16T14:19:41;98735.91;;;18.12;100.00
47726;BME280;33483;48.294;16.388;2022-09-16T14:22:15;98738.91;;;18.26;100.00
47726;BME280;33483;48.294;16.388;2022-09-16T14:24:44;98743.06;;;18.25;100.00
47726;BME280;33483;48.294;16.388;2022-09-16T14:27:21;98731.78;;;18.13;100.00
47726;BME280;33483;48.294;16.388;2022-09-16T14:29:58;98734.63;;;18.04;100.00
47726;BME280;33483;48.294;16.388;2022-09-16T14:32:29;98727.75;;;18.16;100.00
47726;BME280;33483;48.294;16.388;2022-09-16T14:35:07;98727.03;;;18.16;100.00
47726;BME280;33483;48.294;16.388;2022-09-16T14:37:36;98732.75;;;18.18;100.00
47726;BME280;33483;48.294;16.388;2022-09-16T14:40:11;98732.50;;;18.14;100.00
47726;BME280;33483;48.294;16.388;2022-09-16T14:43:16;98738.09;;;18.14;100.00
47726;BME280;33483;48.294;16.388;2022-09-16T14:45:49;98735.22;;;18.02;100.00
47726;BME280;33483;48.294;16.388;2022-09-16T14:48:18;98728.59;;;17.97;100.00
47726;BME280;33483;48.294;16.388;2022-09-16T14:50:51;98727.13;;;17.96;100.00
47726;BME280;33483;48.294;16.388;2022-09-16T14:56:04;98718.28;;;17.69;100.00
47726;BME280;33483;48.294;16.388;2022-09-16T14:58:32;98715.59;;;17.71;100.00
47726;BME280;33483;48.294;16.388;2022-09-16T15:01:09;98712.53;;;17.67;100.00
47726;BME280;33483;48.294;16.388;2022-09-16T15:04:11;98717.59;;;17.50;100.00
47726;BME280;33483;48.294;16.388;2022-09-16T15:06:45;98704.63;;;17.45;100.00
47726;BME280;33483;48.294;16.388;2022-09-16T15:11:54;98694.94;;;17.36;100.00
47726;BME280;33483;48.294;16.388;2022-09-16T15:14:23;98692.69;;;17.35;100.00
47726;BME280;33483;48.294;16.388;2022-09-16T15:17:01;98693.28;;;17.33;100.00
47726;BME280;33483;48.294;16.388;2022-09-16T15:19:38;98697.16;;;17.28;100.00
47726;BME280;33483;48.294;16.388;2022-09-16T15:22:07;98693.34;;;17.24;100.00
47726;BME280;33483;48.294;16.388;2022-09-16T15:24:42;98688.34;;;17.22;100.00
47726;BME280;33483;48.294;16.388;2022-09-16T15:27:23;98678.19;;;17.17;100.00
47726;BME280;33483;48.294;16.388;2022-09-16T15:29:58;98679.34;;;17.14;100.00
47726;BME280;33483;48.294;16.388;2022-09-16T15:32:29;98674.66;;;17.07;100.00
47726;BME280;33483;48.294;16.388;2022-09-16T15:35:17;98677.94;;;16.94;100.00
47726;BME280;33483;48.294;16.388;2022-09-16T15:37:45;98679.84;;;16.92;100.00
47726;BME280;33483;48.294;16.388;2022-09-16T15:45:36;98688.56;;;16.76;100.00
47726;BME280;33483;48.294;16.388;2022-09-16T15:53:58;98686.53;;;16.58;100.00
47726;BME280;33483;48.294;16.388;2022-09-16T15:56:20;98684.75;;;16.53;100.00
47726;BME280;33483;48.294;16.388;2022-09-16T15:58:55;98679.47;;;16.57;100.00
47726;BME280;33483;48.294;16.388;2022-09-16T16:04:06;98684.47;;;16.49;100.00
47726;BME280;33483;48.294;16.388;2022-09-16T16:11:56;98691.06;;;16.44;100.00
47726;BME280;33483;48.294;16.388;2022-09-16T16:14:28;98689.44;;;16.41;100.00
47726;BME280;33483;48.294;16.388;2022-09-16T16:17:10;98698.25;;;16.37;100.00
47726;BME280;33483;48.294;16.388;2022-09-16T16:19:41;98693.09;;;16.34;100.00
47726;BME280;33483;48.294;16.388;2022-09-16T16:22:11;98693.25;;;16.36;100.00
47726;BME280;33483;48.294;16.388;2022-09-16T16:24:39;98693.69;;;16.32;100.00
47726;BME280;33483;48.294;16.388;2022-09-16T16:27:07;98699.13;;;16.30;100.00
47726;BME280;33483;48.294;16.388;2022-09-16T16:29:35;98693.97;;;16.27;100.00